Terminal Aerodrome Forecast
Issued by NWS

Home | Current Version | Previous Version | Text Only | Print | Product List | Glossary Off
Versions: 1 2 3 4 5 6 7 8 9 10 11 12 13 14 15 16 17

542
FTUS43 KMPX 271723
TAFAXN
TAF
KAXN 271723Z 2718/2818 03006KT P6SM SCT025 BKN040
      TEMPO 2810/2814 4SM BR BKN020=

USA.gov is the U.S. government's official web portal to all federal, state and local government web resources and services.